Portada
METAR-TAF:

METAR-TAF

Aeroports :

Changchun, Xina

latitud: 43-54N, longitud: 125-13E, altitud: 238 m

Observació

L'informe es va fer fa 32 minuts, a les 03:00 UTC
Vent 14 kt del Sud-Oest
Temperatura 10°C
Humitat 23%
Pressió 1029 hPa
Visibilitat 10 km o més
sense núvols per sota de 1500 mi sense presència de cumulonimbus.

METAR: ZYCC 150300Z 23007MPS CAVOK 10/M10 Q1029 NOSIG

Hora: 11:32 (03:32 UTC)

Pronòstic

L'informe es va fer fa 8 hores i 28 minuts, a les 19:04 UTC
Pronòstic vàlid del 15 a les 00 UTC al 15 a les 24 UTC
Vent 8 kt del Sud-Oest amb ràfegues de 23 kt
Visibilitat 10 km o més
Escasses núvols a una alçada de 3000 ft

TAF: ZYCC 141904Z 1500/1524 23004G12MPS 9999 FEW030 TX13/1505Z TN02/1522Z

Observacions i pronòstics meteorològics de més de 4000 aeroports (METAR i TAF).

Les estacions disponibles són els punts grocs i vermells al mapa.

Posi el ratolí al punt desitjat per veure el nom de l'estació.

Feu clic per veure les observacions i els pronòstics meteorològics.

Per canviar el mapa: feu clic els botons verds amb una creu de color negre per apropar; al botó verd amb un guió per allunyar la imatge; o en les fletxes verdes per a mapes adjacents.


METAR-TAF: